sensor_id;sensor_type;location;lat;lon;timestamp;pressure;altitude;pressure_sealevel;temperature;humidity
45323;BME280;31382;50.200;8.674;2023-04-19T00:01:39;101176.00;;;13.61;58.67
45323;BME280;31382;50.200;8.674;2023-04-19T00:06:41;101166.03;;;13.61;58.62
45323;BME280;31382;50.200;8.674;2023-04-19T00:11:42;101160.78;;;13.60;58.78
45323;BME280;31382;50.200;8.674;2023-04-19T00:16:44;101156.75;;;13.56;58.81
45323;BME280;31382;50.200;8.674;2023-04-19T00:21:45;101153.06;;;13.48;59.03
45323;BME280;31382;50.200;8.674;2023-04-19T00:26:46;101149.91;;;13.45;59.20
45323;BME280;31382;50.200;8.674;2023-04-19T00:31:48;101160.03;;;13.43;59.25
45323;BME280;31382;50.200;8.674;2023-04-19T00:36:49;101149.91;;;13.37;59.49
45323;BME280;31382;50.200;8.674;2023-04-19T00:41:50;101135.88;;;13.41;59.40
45323;BME280;31382;50.200;8.674;2023-04-19T00:46:55;101140.13;;;13.36;59.58
45323;BME280;31382;50.200;8.674;2023-04-19T00:51:56;101135.06;;;13.24;59.75
45323;BME280;31382;50.200;8.674;2023-04-19T00:56:58;101142.00;;;13.27;59.77
45323;BME280;31382;50.200;8.674;2023-04-19T01:01:59;101129.00;;;13.22;59.63
45323;BME280;31382;50.200;8.674;2023-04-19T01:07:01;101128.50;;;13.19;59.79
45323;BME280;31382;50.200;8.674;2023-04-19T01:12:03;101119.22;;;13.21;59.66
45323;BME280;31382;50.200;8.674;2023-04-19T01:17:06;101105.44;;;13.08;60.44
45323;BME280;31382;50.200;8.674;2023-04-19T01:22:08;101115.72;;;13.04;60.28
45323;BME280;31382;50.200;8.674;2023-04-19T01:27:09;101109.50;;;13.04;60.32
45323;BME280;31382;50.200;8.674;2023-04-19T01:32:11;101107.13;;;13.01;60.40
45323;BME280;31382;50.200;8.674;2023-04-19T01:37:15;101105.97;;;13.03;60.50
45323;BME280;31382;50.200;8.674;2023-04-19T01:42:16;101102.75;;;13.08;60.67
45323;BME280;31382;50.200;8.674;2023-04-19T01:47:18;101091.78;;;13.09;60.31
45323;BME280;31382;50.200;8.674;2023-04-19T01:52:19;101086.38;;;13.09;60.65
45323;BME280;31382;50.200;8.674;2023-04-19T01:57:21;101085.03;;;13.05;60.81
45323;BME280;31382;50.200;8.674;2023-04-19T02:02:22;101087.25;;;13.02;61.01
45323;BME280;31382;50.200;8.674;2023-04-19T02:07:24;101077.94;;;13.04;60.66
45323;BME280;31382;50.200;8.674;2023-04-19T02:12:26;101069.69;;;13.06;61.01
45323;BME280;31382;50.200;8.674;2023-04-19T02:17:31;101072.53;;;13.04;61.12
45323;BME280;31382;50.200;8.674;2023-04-19T02:22:32;101072.41;;;12.98;61.48
45323;BME280;31382;50.200;8.674;2023-04-19T02:27:34;101072.22;;;12.99;61.32
45323;BME280;31382;50.200;8.674;2023-04-19T02:32:35;101073.94;;;12.92;61.51
45323;BME280;31382;50.200;8.674;2023-04-19T02:37:36;101067.72;;;12.92;61.82
45323;BME280;31382;50.200;8.674;2023-04-19T02:42:38;101060.94;;;12.96;61.61
45323;BME280;31382;50.200;8.674;2023-04-19T02:47:39;101056.72;;;12.93;61.46
45323;BME280;31382;50.200;8.674;2023-04-19T02:52:41;101057.75;;;12.92;61.49
45323;BME280;31382;50.200;8.674;2023-04-19T02:57:42;101063.69;;;12.87;61.82
45323;BME280;31382;50.200;8.674;2023-04-19T03:02:43;101062.31;;;12.83;62.01
45323;BME280;31382;50.200;8.674;2023-04-19T03:07:45;101053.75;;;12.80;62.38
45323;BME280;31382;50.200;8.674;2023-04-19T03:12:46;101047.31;;;12.81;62.44
45323;BME280;31382;50.200;8.674;2023-04-19T03:17:47;101050.53;;;12.84;62.16
45323;BME280;31382;50.200;8.674;2023-04-19T03:22:49;101045.13;;;12.84;62.29
45323;BME280;31382;50.200;8.674;2023-04-19T03:27:50;101041.91;;;12.89;62.47
45323;BME280;31382;50.200;8.674;2023-04-19T03:32:52;101034.09;;;13.02;62.16
45323;BME280;31382;50.200;8.674;2023-04-19T03:37:53;101033.97;;;12.96;62.46
45323;BME280;31382;50.200;8.674;2023-04-19T03:42:55;101021.19;;;12.89;62.79
45323;BME280;31382;50.200;8.674;2023-04-19T03:47:56;101019.16;;;12.83;63.65
45323;BME280;31382;50.200;8.674;2023-04-19T03:52:57;101015.13;;;12.87;63.39
45323;BME280;31382;50.200;8.674;2023-04-19T03:57:59;101008.72;;;12.80;63.56
45323;BME280;31382;50.200;8.674;2023-04-19T04:03:00;101013.94;;;12.74;64.36
45323;BME280;31382;50.200;8.674;2023-04-19T04:08:02;101014.13;;;12.80;64.14
45323;BME280;31382;50.200;8.674;2023-04-19T04:13:04;101016.13;;;12.86;64.34
45323;BME280;31382;50.200;8.674;2023-04-19T04:18:05;101021.84;;;12.83;64.34
45323;BME280;31382;50.200;8.674;2023-04-19T04:23:09;101021.84;;;12.83;64.01
45323;BME280;31382;50.200;8.674;2023-04-19T04:28:11;101024.38;;;12.85;64.14
45323;BME280;31382;50.200;8.674;2023-04-19T04:33:12;101030.94;;;12.90;64.26
45323;BME280;31382;50.200;8.674;2023-04-19T04:38:14;101010.00;;;12.93;64.02
45323;BME280;31382;50.200;8.674;2023-04-19T04:43:25;101017.06;;;13.02;63.74
45323;BME280;31382;50.200;8.674;2023-04-19T04:48:29;101025.16;;;13.02;63.59
45323;BME280;31382;50.200;8.674;2023-04-19T04:53:31;101019.28;;;12.98;63.47
45323;BME280;31382;50.200;8.674;2023-04-19T04:58:33;101019.44;;;12.97;63.57
45323;BME280;31382;50.200;8.674;2023-04-19T05:03:34;101016.75;;;12.97;63.46
45323;BME280;31382;50.200;8.674;2023-04-19T05:08:35;101017.56;;;12.97;63.13
45323;BME280;31382;50.200;8.674;2023-04-19T05:13:37;101015.19;;;13.02;63.08
45323;BME280;31382;50.200;8.674;2023-04-19T05:18:38;101011.16;;;12.98;63.26
45323;BME280;31382;50.200;8.674;2023-04-19T05:23:39;101017.56;;;12.97;62.97
45323;BME280;31382;50.200;8.674;2023-04-19T05:28:42;101012.19;;;12.97;63.21
45323;BME280;31382;50.200;8.674;2023-04-19T05:33:44;101005.06;;;13.04;63.00
45323;BME280;31382;50.200;8.674;2023-04-19T05:38:45;101007.44;;;12.99;62.86
45323;BME280;31382;50.200;8.674;2023-04-19T05:43:47;101008.13;;;13.01;62.69
45323;BME280;31382;50.200;8.674;2023-04-19T05:48:48;101003.19;;;13.05;62.56
45323;BME280;31382;50.200;8.674;2023-04-19T05:53:50;100992.41;;;13.13;61.85
45323;BME280;31382;50.200;8.674;2023-04-19T05:58:51;101002.50;;;13.11;62.11
45323;BME280;31382;50.200;8.674;2023-04-19T06:03:53;100996.22;;;13.19;61.82
45323;BME280;31382;50.200;8.674;2023-04-19T06:08:54;100996.72;;;13.22;61.66
45323;BME280;31382;50.200;8.674;2023-04-19T06:13:56;101000.72;;;13.26;61.35
45323;BME280;31382;50.200;8.674;2023-04-19T06:18:57;100999.56;;;13.29;60.93
45323;BME280;31382;50.200;8.674;2023-04-19T06:23:59;101001.25;;;13.30;60.56
45323;BME280;31382;50.200;8.674;2023-04-19T06:29:00;101006.78;;;13.28;60.05
45323;BME280;31382;50.200;8.674;2023-04-19T06:34:02;101005.50;;;13.16;60.50
45323;BME280;31382;50.200;8.674;2023-04-19T06:39:03;101004.09;;;13.28;59.86
45323;BME280;31382;50.200;8.674;2023-04-19T06:44:05;101004.09;;;13.28;59.67
45323;BME280;31382;50.200;8.674;2023-04-19T06:49:06;101000.91;;;13.25;59.29
45323;BME280;31382;50.200;8.674;2023-04-19T06:54:08;101002.28;;;13.21;59.17
45323;BME280;31382;50.200;8.674;2023-04-19T06:59:10;101005.47;;;13.24;58.71
45323;BME280;31382;50.200;8.674;2023-04-19T07:04:12;101009.25;;;13.15;58.85
45323;BME280;31382;50.200;8.674;2023-04-19T07:09:14;101007.50;;;13.31;57.90
45323;BME280;31382;50.200;8.674;2023-04-19T07:14:16;101003.25;;;13.28;58.12
45323;BME280;31382;50.200;8.674;2023-04-19T07:19:19;100999.72;;;13.36;57.17
45323;BME280;31382;50.200;8.674;2023-04-19T07:24:22;100990.16;;;13.48;56.88
45323;BME280;31382;50.200;8.674;2023-04-19T07:29:24;100984.94;;;13.46;56.49
45323;BME280;31382;50.200;8.674;2023-04-19T07:34:25;100979.31;;;13.79;55.96
45323;BME280;31382;50.200;8.674;2023-04-19T07:39:26;100977.66;;;13.93;55.39
45323;BME280;31382;50.200;8.674;2023-04-19T07:44:28;100977.47;;;13.95;55.22
45323;BME280;31382;50.200;8.674;2023-04-19T07:49:29;100984.59;;;14.11;55.23
45323;BME280;31382;50.200;8.674;2023-04-19T07:54:34;100967.25;;;14.05;54.80
45323;BME280;31382;50.200;8.674;2023-04-19T07:59:36;100958.88;;;14.15;54.44
45323;BME280;31382;50.200;8.674;2023-04-19T08:04:37;100947.50;;;14.19;54.07
45323;BME280;31382;50.200;8.674;2023-04-19T08:09:40;100956.00;;;14.16;54.23
45323;BME280;31382;50.200;8.674;2023-04-19T08:14:41;100962.22;;;14.17;53.46
45323;BME280;31382;50.200;8.674;2023-04-19T08:19:56;100966.06;;;14.22;53.37
45323;BME280;31382;50.200;8.674;2023-04-19T08:24:58;100962.91;;;14.34;53.17
45323;BME280;31382;50.200;8.674;2023-04-19T08:29:59;100956.56;;;14.41;52.71
45323;BME280;31382;50.200;8.674;2023-04-19T08:35:00;100955.56;;;14.57;52.62
45323;BME280;31382;50.200;8.674;2023-04-19T08:40:02;100956.75;;;14.55;52.45
45323;BME280;31382;50.200;8.674;2023-04-19T08:45:05;100951.91;;;14.80;51.84
45323;BME280;31382;50.200;8.674;2023-04-19T08:50:09;100935.38;;;14.90;51.47
45323;BME280;31382;50.200;8.674;2023-04-19T08:55:29;100940.59;;;14.91;51.06
45323;BME280;31382;50.200;8.674;2023-04-19T09:00:32;100935.72;;;15.01;50.56
45323;BME280;31382;50.200;8.674;2023-04-19T09:05:34;100943.59;;;15.18;50.63
45323;BME280;31382;50.200;8.674;2023-04-19T09:10:44;100934.19;;;15.57;50.07
45323;BME280;31382;50.200;8.674;2023-04-19T09:15:52;100930.34;;;15.44;49.98
45323;BME280;31382;50.200;8.674;2023-04-19T09:20:54;100926.91;;;15.57;49.84
45323;BME280;31382;50.200;8.674;2023-04-19T09:26:00;100922.44;;;15.71;49.48
45323;BME280;31382;50.200;8.674;2023-04-19T09:31:11;100906.16;;;15.93;48.67
45323;BME280;31382;50.200;8.674;2023-04-19T09:36:34;100922.44;;;15.93;48.73
45323;BME280;31382;50.200;8.674;2023-04-19T09:41:50;100907.56;;;16.17;48.21
45323;BME280;31382;50.200;8.674;2023-04-19T09:46:52;100922.66;;;16.26;47.60
45323;BME280;31382;50.200;8.674;2023-04-19T09:51:55;100907.94;;;16.49;46.54
45323;BME280;31382;50.200;8.674;2023-04-19T09:56:57;100917.25;;;16.26;46.23
45323;BME280;31382;50.200;8.674;2023-04-19T10:02:03;100903.28;;;16.29;45.94
45323;BME280;31382;50.200;8.674;2023-04-19T10:07:06;100898.78;;;16.15;45.50
45323;BME280;31382;50.200;8.674;2023-04-19T10:12:30;100897.41;;;16.25;45.05
45323;BME280;31382;50.200;8.674;2023-04-19T10:17:52;100903.66;;;16.26;44.74
45323;BME280;31382;50.200;8.674;2023-04-19T10:22:54;100885.78;;;16.38;44.47
45323;BME280;31382;50.200;8.674;2023-04-19T10:27:56;100881.81;;;16.41;43.89
45323;BME280;31382;50.200;8.674;2023-04-19T10:32:59;100887.06;;;16.42;43.68
45323;BME280;31382;50.200;8.674;2023-04-19T10:38:06;100883.34;;;16.98;42.94
45323;BME280;31382;50.200;8.674;2023-04-19T10:53:51;100873.97;;;17.81;40.98
45323;BME280;31382;50.200;8.674;2023-04-19T11:04:16;100846.31;;;18.11;39.71
45323;BME280;31382;50.200;8.674;2023-04-19T11:14:23;100837.69;;;18.34;37.69
45323;BME280;31382;50.200;8.674;2023-04-19T11:19:25;100836.44;;;18.30;36.83
45323;BME280;31382;50.200;8.674;2023-04-19T11:24:26;100820.47;;;18.47;36.44
45323;BME280;31382;50.200;8.674;2023-04-19T11:29:28;100820.00;;;18.56;36.19
45323;BME280;31382;50.200;8.674;2023-04-19T11:34:34;100805.69;;;18.68;35.24
45323;BME280;31382;50.200;8.674;2023-04-19T11:39:44;100814.63;;;18.88;34.58
45323;BME280;31382;50.200;8.674;2023-04-19T11:44:50;100793.72;;;19.07;34.05
45323;BME280;31382;50.200;8.674;2023-04-19T11:49:54;100790.22;;;19.00;33.64
45323;BME280;31382;50.200;8.674;2023-04-19T11:55:16;100793.06;;;19.12;32.99
45323;BME280;31382;50.200;8.674;2023-04-19T12:00:27;100779.19;;;19.13;31.92
45323;BME280;31382;50.200;8.674;2023-04-19T12:05:29;100781.09;;;19.38;31.73
45323;BME280;31382;50.200;8.674;2023-04-19T12:10:31;100771.19;;;19.44;31.22
45323;BME280;31382;50.200;8.674;2023-04-19T12:15:40;100766.44;;;19.57;30.75
45323;BME280;31382;50.200;8.674;2023-04-19T12:20:44;100762.53;;;20.09;29.64
45323;BME280;31382;50.200;8.674;2023-04-19T12:25:47;100758.31;;;20.43;29.02
45323;BME280;31382;50.200;8.674;2023-04-19T12:30:48;100754.78;;;20.54;29.05
45323;BME280;31382;50.200;8.674;2023-04-19T12:35:50;100751.84;;;20.56;28.29
45323;BME280;31382;50.200;8.674;2023-04-19T12:40:51;100744.69;;;20.55;27.83
45323;BME280;31382;50.200;8.674;2023-04-19T12:45:53;100750.00;;;20.68;27.10
45323;BME280;31382;50.200;8.674;2023-04-19T12:50:54;100743.34;;;20.64;26.69
45323;BME280;31382;50.200;8.674;2023-04-19T12:55:56;100736.38;;;20.80;26.43
45323;BME280;31382;50.200;8.674;2023-04-19T13:00:57;100730.00;;;21.10;25.70
45323;BME280;31382;50.200;8.674;2023-04-19T13:05:58;100727.81;;;20.76;25.03
45323;BME280;31382;50.200;8.674;2023-04-19T13:11:00;100725.94;;;21.00;24.98
45323;BME280;31382;50.200;8.674;2023-04-19T13:16:01;100721.22;;;21.31;24.79
45323;BME280;31382;50.200;8.674;2023-04-19T13:21:03;100700.88;;;21.63;24.38
45323;BME280;31382;50.200;8.674;2023-04-19T13:26:08;100700.44;;;21.94;23.82
45323;BME280;31382;50.200;8.674;2023-04-19T13:31:09;100693.50;;;21.92;23.43
45323;BME280;31382;50.200;8.674;2023-04-19T13:36:11;100687.53;;;22.07;22.70
45323;BME280;31382;50.200;8.674;2023-04-19T13:41:12;100677.50;;;22.12;22.81
45323;BME280;31382;50.200;8.674;2023-04-19T13:46:14;100683.41;;;22.21;22.56
45323;BME280;31382;50.200;8.674;2023-04-19T13:51:15;100667.34;;;22.25;22.31
45323;BME280;31382;50.200;8.674;2023-04-19T13:56:16;100669.09;;;22.31;22.22
45323;BME280;31382;50.200;8.674;2023-04-19T14:01:18;100657.34;;;22.30;22.08
45323;BME280;31382;50.200;8.674;2023-04-19T14:06:19;100667.13;;;22.43;22.00
45323;BME280;31382;50.200;8.674;2023-04-19T14:11:21;100667.22;;;22.48;21.95
45323;BME280;31382;50.200;8.674;2023-04-19T14:16:23;100667.09;;;23.06;21.70
45323;BME280;31382;50.200;8.674;2023-04-19T14:21:25;100670.28;;;23.36;21.21
45323;BME280;31382;50.200;8.674;2023-04-19T14:26:28;100670.47;;;24.18;20.63
45323;BME280;31382;50.200;8.674;2023-04-19T14:31:30;100651.75;;;25.65;19.56
45323;BME280;31382;50.200;8.674;2023-04-19T14:36:31;100647.31;;;26.42;18.51
45323;BME280;31382;50.200;8.674;2023-04-19T14:41:33;100641.53;;;26.49;18.18
45323;BME280;31382;50.200;8.674;2023-04-19T14:46:34;100642.28;;;25.93;18.63
45323;BME280;31382;50.200;8.674;2023-04-19T14:51:35;100643.84;;;24.83;19.10
45323;BME280;31382;50.200;8.674;2023-04-19T14:56:37;100639.25;;;24.29;20.22
45323;BME280;31382;50.200;8.674;2023-04-19T15:01:38;100637.38;;;23.36;20.38
45323;BME280;31382;50.200;8.674;2023-04-19T15:06:40;100638.75;;;22.32;21.07
45323;BME280;31382;50.200;8.674;2023-04-19T15:11:41;100640.59;;;21.86;21.76
45323;BME280;31382;50.200;8.674;2023-04-19T15:16:42;100635.66;;;22.00;21.68
45323;BME280;31382;50.200;8.674;2023-04-19T15:21:44;100632.50;;;21.79;21.55
45323;BME280;31382;50.200;8.674;2023-04-19T15:26:45;100634.28;;;21.33;22.34
45323;BME280;31382;50.200;8.674;2023-04-19T15:31:47;100627.63;;;21.41;22.52
45323;BME280;31382;50.200;8.674;2023-04-19T15:36:48;100623.72;;;21.77;22.36
45323;BME280;31382;50.200;8.674;2023-04-19T15:41:50;100620.84;;;21.84;22.17
45323;BME280;31382;50.200;8.674;2023-04-19T15:46:52;100623.56;;;21.32;22.84
45323;BME280;31382;50.200;8.674;2023-04-19T15:51:53;100633.94;;;20.94;23.99
45323;BME280;31382;50.200;8.674;2023-04-19T15:56:55;100637.63;;;20.65;24.56
45323;BME280;31382;50.200;8.674;2023-04-19T16:01:57;100641.03;;;20.18;24.92
45323;BME280;31382;50.200;8.674;2023-04-19T16:06:59;100636.84;;;19.73;25.14
45323;BME280;31382;50.200;8.674;2023-04-19T16:12:00;100643.03;;;19.44;25.43
45323;BME280;31382;50.200;8.674;2023-04-19T16:17:02;100646.13;;;19.29;25.60
45323;BME280;31382;50.200;8.674;2023-04-19T16:22:03;100644.44;;;19.09;25.79
45323;BME280;31382;50.200;8.674;2023-04-19T16:27:05;100649.81;;;18.72;26.25
45323;BME280;31382;50.200;8.674;2023-04-19T16:32:07;100650.34;;;18.56;26.25
45323;BME280;31382;50.200;8.674;2023-04-19T16:37:08;100658.72;;;18.22;26.57
45323;BME280;31382;50.200;8.674;2023-04-19T16:42:10;100658.31;;;17.80;26.95
45323;BME280;31382;50.200;8.674;2023-04-19T16:47:11;100648.34;;;17.61;27.12
45323;BME280;31382;50.200;8.674;2023-04-19T16:52:12;100653.84;;;17.48;27.28
45323;BME280;31382;50.200;8.674;2023-04-19T16:57:14;100650.34;;;17.27;27.57
45323;BME280;31382;50.200;8.674;2023-04-19T17:02:15;100645.59;;;17.02;27.25
45323;BME280;31382;50.200;8.674;2023-04-19T17:07:17;100641.41;;;16.93;27.27
45323;BME280;31382;50.200;8.674;2023-04-19T17:12:18;100650.78;;;16.77;27.84
45323;BME280;31382;50.200;8.674;2023-04-19T17:17:20;100651.25;;;16.94;27.64
45323;BME280;31382;50.200;8.674;2023-04-19T17:22:21;100652.47;;;17.05;27.76
45323;BME280;31382;50.200;8.674;2023-04-19T17:27:23;100653.94;;;16.88;28.18
45323;BME280;31382;50.200;8.674;2023-04-19T17:32:25;100648.47;;;16.74;28.25
45323;BME280;31382;50.200;8.674;2023-04-19T17:37:26;100653.31;;;16.65;28.79
45323;BME280;31382;50.200;8.674;2023-04-19T17:42:27;100654.97;;;16.53;29.08
45323;BME280;31382;50.200;8.674;2023-04-19T17:47:29;100654.31;;;16.44;29.47
45323;BME280;31382;50.200;8.674;2023-04-19T17:52:30;100653.25;;;16.32;29.78
45323;BME280;31382;50.200;8.674;2023-04-19T17:57:31;100652.41;;;16.12;29.99
45323;BME280;31382;50.200;8.674;2023-04-19T18:02:34;100661.75;;;15.96;30.24
45323;BME280;31382;50.200;8.674;2023-04-19T18:07:36;100656.25;;;15.76;30.29
45323;BME280;31382;50.200;8.674;2023-04-19T18:12:37;100656.97;;;15.56;30.71
45323;BME280;31382;50.200;8.674;2023-04-19T18:17:38;100665.19;;;15.35;30.95
45323;BME280;31382;50.200;8.674;2023-04-19T18:22:41;100655.72;;;15.17;31.41
45323;BME280;31382;50.200;8.674;2023-04-19T18:27:42;100661.19;;;14.96;31.44
45323;BME280;31382;50.200;8.674;2023-04-19T18:32:46;100662.91;;;14.75;31.95
45323;BME280;31382;50.200;8.674;2023-04-19T18:37:47;100669.97;;;14.55;32.04
45323;BME280;31382;50.200;8.674;2023-04-19T18:42:48;100668.97;;;14.34;32.78
45323;BME280;31382;50.200;8.674;2023-04-19T18:47:50;100663.78;;;14.18;33.16
45323;BME280;31382;50.200;8.674;2023-04-19T18:52:51;100667.50;;;13.95;33.29
45323;BME280;31382;50.200;8.674;2023-04-19T18:57:53;100665.78;;;13.73;33.51
45323;BME280;31382;50.200;8.674;2023-04-19T19:02:56;100680.03;;;13.52;34.40
45323;BME280;31382;50.200;8.674;2023-04-19T19:07:58;100685.16;;;13.32;33.90
45323;BME280;31382;50.200;8.674;2023-04-19T19:12:59;100689.94;;;13.06;34.92
45323;BME280;31382;50.200;8.674;2023-04-19T19:18:02;100692.59;;;12.77;35.17
45323;BME280;31382;50.200;8.674;2023-04-19T19:23:03;100692.91;;;12.59;35.36
45323;BME280;31382;50.200;8.674;2023-04-19T19:28:05;100702.78;;;12.43;35.57
45323;BME280;31382;50.200;8.674;2023-04-19T19:33:10;100693.78;;;12.28;35.80
45323;BME280;31382;50.200;8.674;2023-04-19T19:38:12;100698.56;;;12.18;36.48
45323;BME280;31382;50.200;8.674;2023-04-19T19:43:13;100704.41;;;11.98;36.61
45323;BME280;31382;50.200;8.674;2023-04-19T19:48:14;100701.59;;;11.83;36.93
45323;BME280;31382;50.200;8.674;2023-04-19T19:53:16;100697.63;;;11.71;36.94
45323;BME280;31382;50.200;8.674;2023-04-19T19:58:19;100700.84;;;11.58;37.61
45323;BME280;31382;50.200;8.674;2023-04-19T20:03:40;100697.88;;;11.45;37.80
45323;BME280;31382;50.200;8.674;2023-04-19T20:08:42;100708.00;;;11.35;38.05
45323;BME280;31382;50.200;8.674;2023-04-19T20:13:45;100702.63;;;11.26;38.66
45323;BME280;31382;50.200;8.674;2023-04-19T20:18:47;100706.03;;;11.20;38.93
45323;BME280;31382;50.200;8.674;2023-04-19T20:23:49;100697.59;;;11.15;38.88
45323;BME280;31382;50.200;8.674;2023-04-19T20:28:50;100690.38;;;11.07;39.03
45323;BME280;31382;50.200;8.674;2023-04-19T20:33:52;100693.59;;;11.03;39.39
45323;BME280;31382;50.200;8.674;2023-04-19T20:38:54;100691.59;;;10.97;39.73
45323;BME280;31382;50.200;8.674;2023-04-19T20:43:57;100679.66;;;10.91;39.72
45323;BME280;31382;50.200;8.674;2023-04-19T20:48:59;100686.06;;;10.82;40.00
45323;BME280;31382;50.200;8.674;2023-04-19T20:54:01;100673.44;;;10.74;40.15
45323;BME280;31382;50.200;8.674;2023-04-19T20:59:02;100673.97;;;10.69;40.28
45323;BME280;31382;50.200;8.674;2023-04-19T21:04:03;100678.00;;;10.65;40.35
45323;BME280;31382;50.200;8.674;2023-04-19T21:09:05;100668.44;;;10.55;40.66
45323;BME280;31382;50.200;8.674;2023-04-19T21:14:06;100665.41;;;10.41;40.80
45323;BME280;31382;50.200;8.674;2023-04-19T21:19:08;100670.94;;;10.40;40.83
45323;BME280;31382;50.200;8.674;2023-04-19T21:24:09;100666.59;;;10.39;40.93
45323;BME280;31382;50.200;8.674;2023-04-19T21:29:11;100653.63;;;10.42;40.66
45323;BME280;31382;50.200;8.674;2023-04-19T21:34:12;100656.50;;;10.41;40.63
45323;BME280;31382;50.200;8.674;2023-04-19T21:39:14;100657.34;;;10.41;40.88
45323;BME280;31382;50.200;8.674;2023-04-19T21:44:16;100645.91;;;10.39;40.87
45323;BME280;31382;50.200;8.674;2023-04-19T21:49:18;100639.88;;;10.37;40.94
45323;BME280;31382;50.200;8.674;2023-04-19T21:54:19;100641.69;;;10.37;41.26
45323;BME280;31382;50.200;8.674;2023-04-19T21:59:35;100643.22;;;10.31;41.47
45323;BME280;31382;50.200;8.674;2023-04-19T22:04:37;100631.75;;;10.21;41.84
45323;BME280;31382;50.200;8.674;2023-04-19T22:09:39;100622.84;;;10.12;41.88
45323;BME280;31382;50.200;8.674;2023-04-19T22:14:40;100624.03;;;10.01;42.49
45323;BME280;31382;50.200;8.674;2023-04-19T22:19:42;100621.16;;;9.95;42.61
45323;BME280;31382;50.200;8.674;2023-04-19T22:24:44;100616.09;;;9.83;42.78
45323;BME280;31382;50.200;8.674;2023-04-19T22:29:57;100615.59;;;9.80;42.71
45323;BME280;31382;50.200;8.674;2023-04-19T22:34:59;100605.19;;;9.77;42.59
45323;BME280;31382;50.200;8.674;2023-04-19T22:40:00;100606.00;;;9.77;42.83
45323;BME280;31382;50.200;8.674;2023-04-19T22:45:02;100596.75;;;9.71;42.73
45323;BME280;31382;50.200;8.674;2023-04-19T22:50:04;100593.75;;;9.66;42.90
45323;BME280;31382;50.200;8.674;2023-04-19T22:55:06;100588.53;;;9.65;42.86
45323;BME280;31382;50.200;8.674;2023-04-19T23:00:08;100578.81;;;9.64;43.17
45323;BME280;31382;50.200;8.674;2023-04-19T23:05:12;100579.97;;;9.61;43.05
45323;BME280;31382;50.200;8.674;2023-04-19T23:10:14;100577.47;;;9.60;42.95
45323;BME280;31382;50.200;8.674;2023-04-19T23:15:15;100578.31;;;9.60;43.33
45323;BME280;31382;50.200;8.674;2023-04-19T23:20:17;100562.88;;;9.62;42.82
45323;BME280;31382;50.200;8.674;2023-04-19T23:25:18;100559.34;;;9.62;43.29
45323;BME280;31382;50.200;8.674;2023-04-19T23:30:20;100556.47;;;9.55;43.39
45323;BME280;31382;50.200;8.674;2023-04-19T23:35:21;100552.13;;;9.54;43.44
45323;BME280;31382;50.200;8.674;2023-04-19T23:40:23;100545.06;;;9.53;43.47
45323;BME280;31382;50.200;8.674;2023-04-19T23:45:24;100537.50;;;9.48;43.67
45323;BME280;31382;50.200;8.674;2023-04-19T23:50:26;100532.47;;;9.53;43.30
45323;BME280;31382;50.200;8.674;2023-04-19T23:55:27;100524.94;;;9.57;43.28
